Time,TemperatureF,DewpointF,PressureIn,WindDirection,WindDirectionDegrees,WindSpeedMPH,WindSpeedGustMPH,Humidity,HourlyPrecipIn,Conditions,Clouds,dailyrainin,SoftwareType,DateUTC
2013-02-04 00:00:00,-7.8,-11.1,29.97,WNW,284,0.0,0.0,85,0.00,,SKC,0.00,VWS V14.01,2013-02-04 06:00:00,
2013-02-04 00:03:00,-8.7,-12.0,29.98,WNW,284,0.0,0.0,85,0.00,,SKC,0.00,VWS V14.01,2013-02-04 06:03:00,
2013-02-04 00:05:00,-7.4,-10.7,29.97,WNW,284,0.0,0.0,85,0.00,,SKC,0.00,VWS V14.01,2013-02-04 06:05:00,
2013-02-04 00:08:00,-8.4,-11.7,29.98,WNW,284,0.0,0.0,85,0.00,,SKC,0.00,VWS V14.01,2013-02-04 06:08:00,
2013-02-04 00:10:00,-7.3,-10.4,29.97,WNW,284,0.0,0.0,86,0.00,,SKC,0.00,VWS V14.01,2013-02-04 06:10:00,
2013-02-04 00:13:00,-8.3,-11.8,29.98,WNW,284,0.0,0.0,84,0.00,,SKC,0.00,VWS V14.01,2013-02-04 06:13:00,
2013-02-04 00:15:00,-7.2,-10.3,29.96,WNW,284,0.0,0.0,86,0.00,,SKC,0.00,VWS V14.01,2013-02-04 06:15:00,
2013-02-04 00:18:00,-8.1,-11.4,29.98,WNW,284,0.0,0.0,85,0.00,,SKC,0.00,VWS V14.01,2013-02-04 06:18:00,
2013-02-04 00:20:00,-7.2,-10.5,29.96,WNW,284,0.0,0.0,85,0.00,,SKC,0.00,VWS V14.01,2013-02-04 06:20:00,
2013-02-04 00:23:00,-7.9,-11.2,29.98,WNW,284,0.0,0.0,85,0.00,,SKC,0.00,VWS V14.01,2013-02-04 06:23:00,
2013-02-04 00:25:00,-7.1,-10.4,29.96,WNW,284,0.0,0.0,85,0.00,,SKC,0.00,VWS V14.01,2013-02-04 06:25:00,
2013-02-04 00:28:00,-7.8,-11.1,29.98,WNW,284,0.0,0.0,85,0.00,,SKC,0.00,VWS V14.01,2013-02-04 06:28:00,
2013-02-04 00:30:00,-6.9,-10.2,29.96,WNW,284,0.0,0.0,85,0.00,,SKC,0.00,VWS V14.01,2013-02-04 06:30:00,
2013-02-04 00:33:00,-7.7,-11.0,29.97,WNW,284,0.0,0.0,85,0.00,,SKC,0.00,VWS V14.01,2013-02-04 06:33:00,
2013-02-04 00:35:00,-6.8,-10.1,29.96,WNW,284,0.0,0.0,85,0.00,,SKC,0.00,VWS V14.01,2013-02-04 06:35:00,
2013-02-04 00:38:00,-7.7,-11.0,29.97,WNW,284,0.0,0.0,85,0.00,,SKC,0.00,VWS V14.01,2013-02-04 06:38:00,
2013-02-04 00:40:00,-6.8,-10.1,29.96,WNW,284,0.0,0.0,85,0.00,,SKC,0.00,VWS V14.01,2013-02-04 06:40:00,
2013-02-04 00:43:00,-7.7,-11.0,29.97,WNW,284,0.0,0.0,85,0.00,,SKC,0.00,VWS V14.01,2013-02-04 06:43:00,
2013-02-04 00:45:00,-6.6,-9.9,29.96,WNW,284,0.0,0.0,85,0.00,,SKC,0.00,VWS V14.01,2013-02-04 06:45:00,
2013-02-04 00:48:00,-7.7,-11.0,29.97,WNW,284,0.0,0.0,85,0.00,,SKC,0.00,VWS V14.01,2013-02-04 06:48:00,
2013-02-04 00:50:00,-6.6,-9.9,29.96,WNW,284,0.0,0.0,85,0.00,,SKC,0.00,VWS V14.01,2013-02-04 06:50:00,
2013-02-04 00:53:00,-8.0,-11.5,29.97,WNW,284,0.0,0.0,84,0.00,,SKC,0.00,VWS V14.01,2013-02-04 06:53:00,
2013-02-04 00:55:00,-6.8,-10.4,29.96,WNW,284,0.0,0.0,84,0.00,,SKC,0.00,VWS V14.01,2013-02-04 06:55:00,
2013-02-04 00:58:00,-8.0,-11.5,29.97,WNW,284,0.0,0.0,84,0.00,,SKC,0.00,VWS V14.01,2013-02-04 06:58:00,
2013-02-04 01:00:00,-6.9,-10.4,29.96,WNW,284,0.0,0.0,84,0.00,,SKC,0.00,VWS V14.01,2013-02-04 07:00:00,
2013-02-04 01:04:00,-7.7,-11.0,29.97,WNW,284,0.0,0.0,85,0.00,,SKC,0.00,VWS V14.01,2013-02-04 07:04:00,
2013-02-04 01:05:00,-6.8,-10.1,29.96,WNW,284,0.0,0.0,85,0.00,,SKC,0.00,VWS V14.01,2013-02-04 07:05:00,
2013-02-04 01:09:00,-7.4,-10.5,29.97,WNW,284,0.0,0.0,86,0.00,,SKC,0.00,VWS V14.01,2013-02-04 07:09:00,
2013-02-04 01:10:00,-6.7,-10.0,29.96,WNW,284,0.0,0.0,85,0.00,,SKC,0.00,VWS V14.01,2013-02-04 07:10:00,
2013-02-04 01:14:00,-7.2,-10.3,29.97,WNW,284,0.0,0.0,86,0.00,,SKC,0.00,VWS V14.01,2013-02-04 07:14:00,
2013-02-04 01:15:00,-6.4,-9.5,29.96,WNW,284,0.0,0.0,86,0.00,,SKC,0.00,VWS V14.01,2013-02-04 07:15:00,
2013-02-04 01:19:00,-7.2,-10.5,29.96,WNW,284,0.0,0.0,85,0.00,,SKC,0.00,VWS V14.01,2013-02-04 07:19:00,
2013-02-04 01:20:00,-6.4,-9.5,29.96,WNW,284,0.0,0.0,86,0.00,,SKC,0.00,VWS V14.01,2013-02-04 07:20:00,
2013-02-04 01:24:00,-7.2,-10.5,29.96,WNW,284,0.0,0.0,85,0.00,,SKC,0.00,VWS V14.01,2013-02-04 07:24:00,
2013-02-04 01:25:00,-6.3,-9.4,29.96,WNW,284,0.0,0.0,86,0.00,,SKC,0.00,VWS V14.01,2013-02-04 07:25:00,
2013-02-04 01:29:00,-7.0,-10.3,29.96,WNW,284,0.0,0.0,85,0.00,,SKC,0.00,VWS V14.01,2013-02-04 07:29:00,
2013-02-04 01:30:00,-6.1,-9.2,29.96,WNW,284,0.0,0.0,86,0.00,,SKC,0.00,VWS V14.01,2013-02-04 07:30:00,
2013-02-04 01:34:00,-6.9,-10.2,29.96,WNW,284,0.0,0.0,85,0.00,,SKC,0.00,VWS V14.01,2013-02-04 07:34:00,
2013-02-04 01:35:00,-6.0,-9.1,29.96,WNW,284,0.0,0.0,86,0.00,,SKC,0.00,VWS V14.01,2013-02-04 07:35:00,
2013-02-04 01:39:00,-6.8,-10.1,29.96,WNW,284,0.0,0.0,85,0.00,,SKC,0.00,VWS V14.01,2013-02-04 07:39:00,
2013-02-04 01:40:00,-6.0,-9.1,29.96,WNW,284,0.0,0.0,86,0.00,,SKC,0.00,VWS V14.01,2013-02-04 07:40:00,
2013-02-04 01:44:00,-6.7,-10.0,29.96,WNW,285,0.0,0.0,85,0.00,,SKC,0.00,VWS V14.01,2013-02-04 07:44:00,
2013-02-04 01:45:00,-6.0,-9.3,29.96,WNW,284,0.0,0.0,85,0.00,,SKC,0.00,VWS V14.01,2013-02-04 07:45:00,
2013-02-04 01:49:00,-6.6,-9.9,29.96,WNW,284,0.0,0.0,85,0.00,,SKC,0.00,VWS V14.01,2013-02-04 07:49:00,
2013-02-04 01:50:00,-6.1,-9.4,29.96,WNW,284,0.0,0.0,85,0.00,,SKC,0.00,VWS V14.01,2013-02-04 07:50:00,
2013-02-04 01:54:00,-6.6,-9.9,29.96,WNW,284,0.0,0.0,85,0.00,,SKC,0.00,VWS V14.01,2013-02-04 07:54:00,
2013-02-04 01:55:00,-6.3,-9.6,29.96,WNW,284,0.0,0.0,85,0.00,,SKC,0.00,VWS V14.01,2013-02-04 07:55:00,
2013-02-04 01:59:00,-6.8,-10.4,29.96,WNW,284,0.0,0.0,84,0.00,,SKC,0.00,VWS V14.01,2013-02-04 07:59:00,
2013-02-04 02:00:00,-6.5,-9.8,29.96,WNW,284,0.0,0.0,85,0.00,,SKC,0.00,VWS V14.01,2013-02-04 08:00:00,
2013-02-04 02:04:00,-6.9,-10.2,29.96,WNW,284,0.0,0.0,85,0.00,,SKC,0.00,VWS V14.01,2013-02-04 08:04:00,
2013-02-04 02:05:00,-6.7,-10.0,29.96,WNW,284,0.0,0.0,85,0.00,,SKC,0.00,VWS V14.01,2013-02-04 08:05:00,
2013-02-04 02:09:00,-6.7,-10.0,29.96,WNW,284,0.0,0.0,85,0.00,,SKC,0.00,VWS V14.01,2013-02-04 08:09:00,
2013-02-04 02:10:00,-6.9,-10.2,29.96,WNW,284,0.0,0.0,85,0.00,,SKC,0.00,VWS V14.01,2013-02-04 08:10:00,
2013-02-04 02:14:00,-6.6,-9.9,29.96,WNW,284,0.0,0.0,85,0.00,,SKC,0.00,VWS V14.01,2013-02-04 08:14:00,
2013-02-04 02:15:00,-6.9,-10.2,29.96,WNW,284,0.0,0.0,85,0.00,,SKC,0.00,VWS V14.01,2013-02-04 08:15:00,
2013-02-04 02:19:00,-6.4,-9.5,29.96,WNW,284,0.0,0.0,86,0.00,,SKC,0.00,VWS V14.01,2013-02-04 08:19:00,
2013-02-04 02:20:00,-6.8,-10.1,29.96,WNW,284,0.0,0.0,85,0.00,,SKC,0.00,VWS V14.01,2013-02-04 08:20:00,
2013-02-04 02:24:00,-6.3,-9.4,29.96,WNW,284,0.0,0.0,86,0.00,,SKC,0.00,VWS V14.01,2013-02-04 08:24:00,
2013-02-04 02:25:00,-6.7,-9.8,29.96,WNW,284,0.0,0.0,86,0.00,,SKC,0.00,VWS V14.01,2013-02-04 08:25:00,
2013-02-04 02:29:00,-6.2,-9.3,29.96,WNW,284,0.0,0.0,86,0.00,,SKC,0.00,VWS V14.01,2013-02-04 08:29:00,
2013-02-04 02:30:00,-6.7,-10.0,29.96,WNW,284,0.0,0.0,85,0.00,,SKC,0.00,VWS V14.01,2013-02-04 08:30:00,
2013-02-04 02:34:00,-6.1,-9.2,29.96,WNW,284,0.0,0.0,86,0.00,,SKC,0.00,VWS V14.01,2013-02-04 08:34:00,
2013-02-04 02:35:00,-6.6,-9.7,29.96,WNW,284,0.0,0.0,86,0.00,,SKC,0.00,VWS V14.01,2013-02-04 08:35:00,
2013-02-04 02:39:00,-6.0,-9.1,29.96,WNW,284,0.0,0.0,86,0.00,,SKC,0.00,VWS V14.01,2013-02-04 08:39:00,
2013-02-04 02:40:00,-6.7,-10.0,29.96,WNW,284,0.0,0.0,85,0.00,,SKC,0.00,VWS V14.01,2013-02-04 08:40:00,
2013-02-04 02:44:00,-6.0,-9.1,29.96,WNW,284,0.0,0.0,86,0.00,,SKC,0.00,VWS V14.01,2013-02-04 08:44:00,
2013-02-04 02:45:00,-6.9,-10.2,29.96,WNW,284,0.0,0.0,85,0.00,,SKC,0.00,VWS V14.01,2013-02-04 08:45:00,
2013-02-04 02:49:00,-6.1,-9.4,29.96,WNW,284,0.0,0.0,85,0.00,,SKC,0.00,VWS V14.01,2013-02-04 08:49:00,
2013-02-04 02:50:00,-7.1,-10.4,29.96,WNW,284,0.0,0.0,85,0.00,,SKC,0.00,VWS V14.01,2013-02-04 08:50:00,
2013-02-04 02:54:00,-6.2,-9.5,29.96,WNW,284,0.0,0.0,85,0.00,,SKC,0.00,VWS V14.01,2013-02-04 08:54:00,
2013-02-04 02:55:00,-7.3,-10.6,29.96,WNW,284,0.0,0.0,85,0.00,,SKC,0.00,VWS V14.01,2013-02-04 08:55:00,
2013-02-04 02:59:00,-6.4,-9.7,29.96,WNW,284,0.0,0.0,85,0.00,,SKC,0.00,VWS V14.01,2013-02-04 08:59:00,
2013-02-04 03:00:00,-7.6,-10.9,29.96,WNW,284,0.0,0.0,85,0.00,,SKC,0.00,VWS V14.01,2013-02-04 09:00:00,
2013-02-04 03:04:00,-6.6,-9.9,29.96,WNW,284,0.0,0.0,85,0.00,,SKC,0.00,VWS V14.01,2013-02-04 09:04:00,
2013-02-04 03:05:00,-7.9,-11.2,29.96,WNW,284,0.0,0.0,85,0.00,,SKC,0.00,VWS V14.01,2013-02-04 09:05:00,
2013-02-04 03:09:00,-6.8,-10.1,29.96,WNW,284,0.0,0.0,85,0.00,,SKC,0.00,VWS V14.01,2013-02-04 09:09:00,
2013-02-04 03:10:00,-8.2,-11.5,29.96,WNW,284,0.0,0.0,85,0.00,,SKC,0.00,VWS V14.01,2013-02-04 09:10:00,
2013-02-04 03:14:00,-6.9,-10.2,29.96,WNW,284,0.0,0.0,85,0.00,,SKC,0.00,VWS V14.01,2013-02-04 09:14:00,
2013-02-04 03:15:00,-8.3,-11.6,29.96,WNW,284,0.0,0.0,85,0.00,,SKC,0.00,VWS V14.01,2013-02-04 09:15:00,
2013-02-04 03:19:00,-6.9,-10.2,29.96,WNW,284,0.0,0.0,85,0.00,,SKC,0.00,VWS V14.01,2013-02-04 09:19:00,
2013-02-04 03:20:00,-8.3,-11.4,29.96,WNW,284,0.0,0.0,86,0.00,,SKC,0.00,VWS V14.01,2013-02-04 09:20:00,
2013-02-04 03:24:00,-6.7,-9.8,29.96,WNW,284,0.0,0.0,86,0.00,,SKC,0.00,VWS V14.01,2013-02-04 09:24:00,
2013-02-04 03:25:00,-8.5,-11.8,29.96,WNW,284,0.0,0.0,85,0.00,,SKC,0.00,VWS V14.01,2013-02-04 09:25:00,
2013-02-04 03:30:00,-6.7,-9.8,29.96,WNW,284,0.0,0.0,86,0.00,,SKC,0.00,VWS V14.01,2013-02-04 09:30:00,
2013-02-04 03:35:00,-6.6,-9.7,29.96,WNW,284,0.0,0.0,86,0.00,,SKC,0.00,VWS V14.01,2013-02-04 09:35:00,
2013-02-04 03:40:00,-6.7,-9.8,29.96,WNW,284,0.0,0.0,86,0.00,,SKC,0.00,VWS V14.01,2013-02-04 09:40:00,
2013-02-04 03:45:00,-6.9,-10.2,29.96,WNW,284,0.0,0.0,85,0.00,,SKC,0.00,VWS V14.01,2013-02-04 09:45:00,
2013-02-04 03:50:00,-7.0,-10.3,29.96,WNW,284,0.0,0.0,85,0.00,,SKC,0.00,VWS V14.01,2013-02-04 09:50:00,
2013-02-04 03:55:00,-7.2,-10.5,29.96,WNW,284,0.0,0.0,85,0.00,,SKC,0.00,VWS V14.01,2013-02-04 09:55:00,
2013-02-04 04:00:00,-7.5,-10.8,29.96,WNW,284,0.0,0.0,85,0.00,,SKC,0.00,VWS V14.01,2013-02-04 10:00:00,
2013-02-04 04:05:00,-7.8,-11.1,29.96,WNW,284,0.0,0.0,85,0.00,,SKC,0.00,VWS V14.01,2013-02-04 10:05:00,
2013-02-04 04:10:00,-8.1,-11.4,29.96,WNW,284,0.0,0.0,85,0.00,,SKC,0.00,VWS V14.01,2013-02-04 10:10:00,
2013-02-04 04:15:00,-8.3,-11.6,29.96,WNW,284,0.0,0.0,85,0.00,,SKC,0.00,VWS V14.01,2013-02-04 10:15:00,
2013-02-04 04:20:00,-8.4,-11.7,29.96,WNW,284,0.0,0.0,85,0.00,,SKC,0.00,VWS V14.01,2013-02-04 10:20:00,
2013-02-04 04:25:00,-8.4,-11.4,29.96,WNW,284,0.0,0.0,86,0.00,,SKC,0.00,VWS V14.01,2013-02-04 10:25:00,
2013-02-04 04:30:00,-8.6,-11.9,29.96,WNW,284,0.0,0.0,85,0.00,,SKC,0.00,VWS V14.01,2013-02-04 10:30:00,
2013-02-04 04:35:00,-8.6,-11.9,29.96,WNW,284,0.0,0.0,85,0.00,,SKC,0.00,VWS V14.01,2013-02-04 10:35:00,
2013-02-04 04:40:00,-8.7,-12.0,29.96,WNW,284,0.0,0.0,85,0.00,,SKC,0.00,VWS V14.01,2013-02-04 10:40:00,
2013-02-04 04:45:00,-8.9,-12.2,29.96,WNW,284,0.0,0.0,85,0.00,,SKC,0.00,VWS V14.01,2013-02-04 10:45:00,
2013-02-04 04:50:00,-9.3,-12.6,29.96,WNW,284,0.0,0.0,85,0.00,,SKC,0.00,VWS V14.01,2013-02-04 10:50:00,
2013-02-04 04:55:00,-9.6,-13.1,29.96,WNW,284,0.0,0.0,84,0.00,,SKC,0.00,VWS V14.01,2013-02-04 10:55:00,
2013-02-04 05:00:00,-9.9,-13.4,29.96,WNW,284,0.0,0.0,84,0.00,,SKC,0.00,VWS V14.01,2013-02-04 11:00:00,
2013-02-04 05:05:00,-10.3,-13.8,29.97,WNW,284,0.0,0.0,84,0.00,,SKC,0.00,VWS V14.01,2013-02-04 11:05:00,
2013-02-04 05:10:00,-10.5,-14.0,29.97,WNW,284,0.0,0.0,84,0.00,,SKC,0.00,VWS V14.01,2013-02-04 11:10:00,
2013-02-04 05:15:00,-10.6,-13.9,29.97,WNW,284,0.0,0.0,85,0.00,,SKC,0.00,VWS V14.01,2013-02-04 11:15:00,
2013-02-04 05:20:00,-10.9,-14.4,29.97,WNW,284,0.0,0.0,84,0.00,,SKC,0.00,VWS V14.01,2013-02-04 11:20:00,
2013-02-04 05:25:00,-11.3,-14.8,29.97,WNW,284,0.0,0.0,84,0.00,,SKC,0.00,VWS V14.01,2013-02-04 11:25:00,
2013-02-04 05:30:00,-11.4,-14.6,29.97,WNW,284,0.0,0.0,85,0.00,,SKC,0.00,VWS V14.01,2013-02-04 11:30:00,
2013-02-04 05:35:00,-11.7,-15.2,29.97,WNW,284,0.0,0.0,84,0.00,,SKC,0.00,VWS V14.01,2013-02-04 11:35:00,
2013-02-04 05:40:00,-12.0,-15.5,29.97,WNW,284,0.0,0.0,84,0.00,,SKC,0.00,VWS V14.01,2013-02-04 11:40:00,
2013-02-04 05:45:00,-12.2,-15.7,29.97,WNW,284,0.0,0.0,84,0.00,,SKC,0.00,VWS V14.01,2013-02-04 11:45:00,
2013-02-04 05:50:00,-12.2,-15.4,29.97,WNW,284,0.0,0.0,85,0.00,,SKC,0.00,VWS V14.01,2013-02-04 11:50:00,
2013-02-04 05:55:00,-12.4,-15.6,29.97,WNW,284,0.0,0.0,85,0.00,,SKC,0.00,VWS V14.01,2013-02-04 11:55:00,
2013-02-04 06:00:00,-12.8,-16.2,29.97,WNW,284,0.0,0.0,84,0.00,,SKC,0.00,VWS V14.01,2013-02-04 12:00:00,
2013-02-04 06:05:00,-13.1,-16.5,29.97,WNW,284,0.0,0.0,84,0.00,,SKC,0.00,VWS V14.01,2013-02-04 12:05:00,
2013-02-04 06:10:00,-13.2,-16.6,29.97,WNW,284,0.0,0.0,84,0.00,,SKC,0.00,VWS V14.01,2013-02-04 12:10:00,
2013-02-04 06:15:00,-13.3,-16.7,29.97,WNW,284,0.0,0.0,84,0.00,,SKC,0.00,VWS V14.01,2013-02-04 12:15:00,
2013-02-04 06:20:00,-13.5,-16.9,29.97,WNW,284,0.0,0.0,84,0.00,,SKC,0.00,VWS V14.01,2013-02-04 12:20:00,
2013-02-04 06:25:00,-13.8,-17.2,29.97,WNW,284,0.0,0.0,84,0.00,,SKC,0.00,VWS V14.01,2013-02-04 12:25:00,
2013-02-04 06:30:00,-13.8,-17.2,29.97,WNW,284,0.0,0.0,84,0.00,,SKC,0.00,VWS V14.01,2013-02-04 12:30:00,
2013-02-04 06:35:00,-14.0,-17.4,29.98,WNW,284,0.0,0.0,84,0.00,,SKC,0.00,VWS V14.01,2013-02-04 12:35:00,
2013-02-04 06:40:00,-14.5,-18.1,29.98,WNW,284,0.0,0.0,83,0.00,,SKC,0.00,VWS V14.01,2013-02-04 12:40:00,
2013-02-04 06:45:00,-14.6,-18.2,29.98,WNW,284,0.0,0.0,83,0.00,,SKC,0.00,VWS V14.01,2013-02-04 12:45:00,
2013-02-04 06:50:00,-14.6,-18.0,29.98,WNW,284,0.0,0.0,84,0.00,,SKC,0.00,VWS V14.01,2013-02-04 12:50:00,
2013-02-04 06:55:00,-14.9,-18.3,29.98,WNW,284,0.0,0.0,84,0.00,,SKC,0.00,VWS V14.01,2013-02-04 12:55:00,
2013-02-04 07:00:00,-15.1,-18.5,29.98,WNW,284,0.0,0.0,84,0.00,,SKC,0.00,VWS V14.01,2013-02-04 13:00:00,
2013-02-04 07:05:00,-15.2,-18.6,29.99,WNW,284,0.0,0.0,84,0.00,,SKC,0.00,VWS V14.01,2013-02-04 13:05:00,
2013-02-04 07:10:00,-15.4,-19.0,29.99,WNW,284,0.0,0.0,83,0.00,,SKC,0.00,VWS V14.01,2013-02-04 13:10:00,
2013-02-04 07:15:00,-15.4,-18.8,29.99,WNW,284,0.0,0.0,84,0.00,,SKC,0.00,VWS V14.01,2013-02-04 13:15:00,
2013-02-04 07:20:00,-15.6,-19.0,29.99,WNW,284,0.0,0.0,84,0.00,,SKC,0.00,VWS V14.01,2013-02-04 13:20:00,
2013-02-04 07:25:00,-15.9,-19.5,29.99,WNW,284,0.0,0.0,83,0.00,,SKC,0.00,VWS V14.01,2013-02-04 13:25:00,
2013-02-04 07:30:00,-16.1,-19.7,29.99,WNW,284,0.0,0.0,83,0.00,,SKC,0.00,VWS V14.01,2013-02-04 13:30:00,
2013-02-04 07:35:00,-16.2,-19.8,29.99,WNW,284,0.0,0.0,83,0.00,,SKC,0.00,VWS V14.01,2013-02-04 13:35:00,
2013-02-04 07:40:00,-16.2,-19.8,29.99,WNW,284,0.0,0.0,83,0.00,,SKC,0.00,VWS V14.01,2013-02-04 13:40:00,
2013-02-04 07:45:00,-16.1,-19.7,29.99,WNW,284,0.0,0.0,83,0.00,,SKC,0.00,VWS V14.01,2013-02-04 13:45:00,
2013-02-04 07:50:00,-9.0,-11.6,30.00,WNW,284,0.0,0.0,88,0.00,,SKC,0.00,VWS V14.01,2013-02-04 13:50:00,
2013-02-04 07:51:00,-16.0,-19.6,30.00,WNW,284,0.0,0.0,83,0.00,,SKC,0.00,VWS V14.01,2013-02-04 13:51:00,
2013-02-04 07:55:00,-7.7,-10.3,30.00,WNW,284,0.0,0.0,88,0.00,,SKC,0.00,VWS V14.01,2013-02-04 13:55:00,
2013-02-04 07:56:00,-15.7,-19.1,30.00,WNW,284,0.0,0.0,84,0.00,,SKC,0.00,VWS V14.01,2013-02-04 13:56:00,
2013-02-04 08:00:00,-6.6,-9.2,30.00,WNW,284,0.0,0.0,88,0.00,,SKC,0.00,VWS V14.01,2013-02-04 14:00:00,
2013-02-04 08:01:00,-15.4,-18.8,30.00,WNW,284,0.0,0.0,84,0.00,,SKC,0.00,VWS V14.01,2013-02-04 14:01:00,
2013-02-04 08:05:00,-5.6,-8.2,30.00,WNW,284,0.0,1.0,88,0.00,,SKC,0.00,VWS V14.01,2013-02-04 14:05:00,
2013-02-04 08:06:00,-15.2,-18.6,30.00,WNW,284,0.0,0.0,84,0.00,,SKC,0.00,VWS V14.01,2013-02-04 14:06:00,
2013-02-04 08:10:00,-4.7,-7.3,30.00,WNW,284,0.0,0.0,88,0.00,,SKC,0.00,VWS V14.01,2013-02-04 14:10:00,
2013-02-04 08:11:00,-14.7,-18.1,30.00,WNW,284,0.0,0.0,84,0.00,,SKC,0.00,VWS V14.01,2013-02-04 14:11:00,
2013-02-04 08:15:00,-3.9,-6.6,30.00,WNW,284,0.0,1.0,88,0.00,,SKC,0.00,VWS V14.01,2013-02-04 14:15:00,
2013-02-04 08:16:00,-14.3,-17.7,30.00,WNW,284,0.0,0.0,84,0.00,,SKC,0.00,VWS V14.01,2013-02-04 14:16:00,
2013-02-04 08:20:00,-3.2,-5.9,30.00,West,274,0.0,1.0,88,0.00,,SKC,0.00,VWS V14.01,2013-02-04 14:20:00,
2013-02-04 08:21:00,-13.7,-16.9,30.00,WNW,284,0.0,0.0,85,0.00,,SKC,0.00,VWS V14.01,2013-02-04 14:21:00,
2013-02-04 08:25:00,-2.4,-5.1,30.00,NNW,328,0.0,1.0,88,0.00,,SKC,0.00,VWS V14.01,2013-02-04 14:25:00,
2013-02-04 08:26:00,-13.2,-16.4,30.00,WNW,284,0.0,0.0,85,0.00,,SKC,0.00,VWS V14.01,2013-02-04 14:26:00,
2013-02-04 08:30:00,-1.7,-4.6,30.00,NNE,23,0.0,1.0,87,0.00,,SKC,0.00,VWS V14.01,2013-02-04 14:30:00,
2013-02-04 08:31:00,-12.4,-15.4,30.00,WNW,284,0.0,0.0,86,0.00,,SKC,0.00,VWS V14.01,2013-02-04 14:31:00,
2013-02-04 08:35:00,-1.1,-4.0,30.00,West,265,0.0,1.0,87,0.00,,SKC,0.00,VWS V14.01,2013-02-04 14:35:00,
2013-02-04 08:36:00,-11.5,-14.3,30.00,WNW,284,0.0,0.0,87,0.00,,SKC,0.00,VWS V14.01,2013-02-04 14:36:00,
2013-02-04 08:40:00,-0.6,-3.8,30.00,West,261,0.0,1.0,86,0.00,,SKC,0.00,VWS V14.01,2013-02-04 14:40:00,
2013-02-04 08:41:00,-10.8,-13.6,30.00,WNW,285,0.0,0.0,87,0.00,,SKC,0.00,VWS V14.01,2013-02-04 14:41:00,
2013-02-04 08:45:00,-0.1,-3.3,30.01,SW,222,0.0,1.0,86,0.00,,SKC,0.00,VWS V14.01,2013-02-04 14:45:00,
2013-02-04 08:46:00,-10.0,-12.8,30.00,WNW,284,0.0,0.0,87,0.00,,SKC,0.00,VWS V14.01,2013-02-04 14:46:00,
2013-02-04 08:50:00,0.4,-3.0,30.01,West,279,0.0,1.0,85,0.00,,SKC,0.00,VWS V14.01,2013-02-04 14:50:00,
2013-02-04 08:51:00,-9.3,-12.1,30.00,WNW,284,0.0,0.0,87,0.00,,SKC,0.00,VWS V14.01,2013-02-04 14:51:00,
2013-02-04 08:55:00,0.9,-2.5,30.01,NNW,329,0.0,1.0,85,0.00,,SKC,0.00,VWS V14.01,2013-02-04 14:55:00,
2013-02-04 08:56:00,-7.9,-10.5,30.00,WNW,284,0.0,0.0,88,0.00,,SKC,0.00,VWS V14.01,2013-02-04 14:56:00,
2013-02-04 09:00:00,1.5,-2.0,30.00,NNW,338,0.0,1.0,85,0.00,,SKC,0.00,VWS V14.01,2013-02-04 15:00:00,
2013-02-04 09:01:00,-6.9,-9.5,30.00,WNW,284,0.0,0.0,88,0.00,,SKC,0.00,VWS V14.01,2013-02-04 15:01:00,
2013-02-04 09:05:00,2.1,-1.6,30.00,WNW,299,0.0,3.0,84,0.00,,SKC,0.00,VWS V14.01,2013-02-04 15:05:00,
2013-02-04 09:06:00,-5.8,-8.4,30.00,WNW,284,1.0,1.0,88,0.00,,SKC,0.00,VWS V14.01,2013-02-04 15:06:00,
2013-02-04 09:10:00,2.6,-1.4,30.00,NE,44,0.0,1.0,83,0.00,,SKC,0.00,VWS V14.01,2013-02-04 15:10:00,
2013-02-04 09:11:00,-4.8,-7.4,30.00,WNW,285,0.0,0.0,88,0.00,,SKC,0.00,VWS V14.01,2013-02-04 15:11:00,
2013-02-04 09:15:00,2.9,-1.6,30.01,WSW,257,1.0,2.0,81,0.00,,SKC,0.00,VWS V14.01,2013-02-04 15:15:00,
2013-02-04 09:16:00,-4.0,-6.7,30.00,WNW,284,0.0,1.0,88,0.00,,SKC,0.00,VWS V14.01,2013-02-04 15:16:00,
2013-02-04 09:20:00,3.3,-1.5,30.01,NNW,342,1.0,2.0,80,0.00,,SKC,0.00,VWS V14.01,2013-02-04 15:20:00,
2013-02-04 09:21:00,-3.3,-6.0,30.00,West,281,1.0,1.0,88,0.00,,SKC,0.00,VWS V14.01,2013-02-04 15:21:00,
2013-02-04 09:25:00,3.9,-0.9,30.01,WNW,287,2.0,3.0,80,0.00,,SKC,0.00,VWS V14.01,2013-02-04 15:25:00,
2013-02-04 09:26:00,-2.6,-5.3,30.00,NNE,22,0.0,1.0,88,0.00,,SKC,0.00,VWS V14.01,2013-02-04 15:26:00,
2013-02-04 09:30:00,4.6,-0.2,30.01,West,280,0.0,2.0,80,0.00,,SKC,0.00,VWS V14.01,2013-02-04 15:30:00,
2013-02-04 09:31:00,-1.8,-4.7,30.00,NNE,22,0.0,1.0,87,0.00,,SKC,0.00,VWS V14.01,2013-02-04 15:31:00,
2013-02-04 09:35:00,5.0,-0.3,30.01,WSW,248,1.0,5.0,78,0.00,,SKC,0.00,VWS V14.01,2013-02-04 15:35:00,
2013-02-04 09:36:00,-1.3,-4.2,30.00,West,265,0.0,1.0,87,0.00,,SKC,0.00,VWS V14.01,2013-02-04 15:36:00,
2013-02-04 09:40:00,5.4,-0.2,30.01,West,279,0.0,4.0,77,0.00,,SKC,0.00,VWS V14.01,2013-02-04 15:40:00,
2013-02-04 09:41:00,-0.7,-3.9,30.00,West,261,0.0,1.0,86,0.00,,SKC,0.00,VWS V14.01,2013-02-04 15:41:00,
2013-02-04 09:45:00,6.0,0.1,30.01,WNW,283,1.0,3.0,76,0.00,,SKC,0.00,VWS V14.01,2013-02-04 15:45:00,
2013-02-04 09:46:00,-0.2,-3.4,30.01,SW,222,0.0,1.0,86,0.00,,SKC,0.00,VWS V14.01,2013-02-04 15:46:00,
2013-02-04 09:50:00,6.3,0.1,30.01,NE,44,0.0,2.0,75,0.00,,SKC,0.00,VWS V14.01,2013-02-04 15:50:00,
2013-02-04 09:51:00,0.3,-3.1,30.01,West,279,0.0,1.0,85,0.00,,SKC,0.00,VWS V14.01,2013-02-04 15:51:00,
2013-02-04 09:55:00,6.7,0.2,30.01,West,267,0.0,3.0,74,0.00,,SKC,0.00,VWS V14.01,2013-02-04 15:55:00,
2013-02-04 09:56:00,0.8,-2.6,30.01,NW,307,0.0,1.0,85,0.00,,SKC,0.00,VWS V14.01,2013-02-04 15:56:00,
2013-02-04 10:00:00,7.2,0.4,30.01,WSW,242,2.0,4.0,73,0.00,,SKC,0.00,VWS V14.01,2013-02-04 16:00:00,
2013-02-04 10:01:00,1.4,-2.0,30.00,NNW,346,0.0,0.0,85,0.00,,SKC,0.00,VWS V14.01,2013-02-04 16:01:00,
2013-02-04 10:05:00,7.4,0.3,30.01,West,270,2.0,4.0,72,0.00,,SKC,0.00,VWS V14.01,2013-02-04 16:05:00,
2013-02-04 10:06:00,2.0,-1.7,30.00,WNW,299,0.0,3.0,84,0.00,,SKC,0.00,VWS V14.01,2013-02-04 16:06:00,
2013-02-04 10:10:00,8.1,0.7,30.01,NNE,29,2.0,3.0,71,0.00,,SKC,0.00,VWS V14.01,2013-02-04 16:10:00,
2013-02-04 10:11:00,2.6,-1.4,30.00,NE,42,0.0,1.0,83,0.00,,SKC,0.00,VWS V14.01,2013-02-04 16:11:00,
2013-02-04 10:15:00,8.1,-0.3,30.00,WSW,242,0.0,5.0,68,0.00,,SKC,0.00,VWS V14.01,2013-02-04 16:15:00,
2013-02-04 10:16:00,2.9,-1.6,30.01,WSW,246,2.0,2.0,81,0.00,,SKC,0.00,VWS V14.01,2013-02-04 16:16:00,
2013-02-04 10:20:00,8.4,0.3,30.00,WNW,282,1.0,2.0,69,0.00,,SKC,0.00,VWS V14.01,2013-02-04 16:20:00,
2013-02-04 10:22:00,3.3,-1.2,30.01,West,273,0.0,2.0,81,0.00,,SKC,0.00,VWS V14.01,2013-02-04 16:22:00,
2013-02-04 10:25:00,8.7,0.0,30.00,WNW,288,4.0,5.0,67,0.00,,SKC,0.00,VWS V14.01,2013-02-04 16:25:00,
2013-02-04 10:27:00,3.8,-1.0,30.01,North,10,2.0,3.0,80,0.00,,SKC,0.00,VWS V14.01,2013-02-04 16:27:00,
2013-02-04 10:30:00,8.6,-0.4,29.99,West,261,0.0,5.0,66,0.00,,SKC,0.00,VWS V14.01,2013-02-04 16:30:00,
2013-02-04 10:32:00,4.5,-0.3,30.01,West,280,0.0,2.0,80,0.00,,SKC,0.00,VWS V14.01,2013-02-04 16:32:00,
2013-02-04 10:35:00,8.9,-0.4,29.99,West,274,1.0,3.0,65,0.00,,SKC,0.00,VWS V14.01,2013-02-04 16:35:00,
2013-02-04 10:37:00,5.0,-0.3,30.01,West,263,2.0,5.0,78,0.00,,SKC,0.00,VWS V14.01,2013-02-04 16:37:00,
2013-02-04 10:40:00,9.4,0.0,29.99,WSW,246,0.0,2.0,65,0.00,,SKC,0.00,VWS V14.01,2013-02-04 16:40:00,
2013-02-04 10:42:00,5.4,-0.2,30.01,West,280,2.0,4.0,77,0.00,,SKC,0.00,VWS V14.01,2013-02-04 16:42:00,
2013-02-04 10:45:00,10.3,0.9,29.99,WNW,284,2.0,3.0,65,0.00,,SKC,0.00,VWS V14.01,2013-02-04 16:45:00,
2013-02-04 10:47:00,5.9,0.0,30.01,WSW,253,3.0,3.0,76,0.00,,SKC,0.00,VWS V14.01,2013-02-04 16:47:00,
2013-02-04 10:50:00,10.8,1.0,29.99,West,280,3.0,3.0,64,0.00,,SKC,0.00,VWS V14.01,2013-02-04 16:50:00,
2013-02-04 10:52:00,6.3,0.1,30.01,NE,44,0.0,2.0,75,0.00,,SKC,0.00,VWS V14.01,2013-02-04 16:52:00,
2013-02-04 10:55:00,10.9,0.8,29.99,WNW,296,1.0,4.0,63,0.00,,SKC,0.00,VWS V14.01,2013-02-04 16:55:00,
2013-02-04 10:57:00,6.6,0.1,30.01,West,267,0.0,3.0,74,0.00,,SKC,0.00,VWS V14.01,2013-02-04 16:57:00,
2013-02-04 11:00:00,10.8,-0.3,29.99,West,271,2.0,6.0,60,0.00,,SKC,0.00,VWS V14.01,2013-02-04 17:00:00,
2013-02-04 11:02:00,7.2,0.4,30.01,SW,230,1.0,4.0,73,0.00,,SKC,0.00,VWS V14.01,2013-02-04 17:02:00,
2013-02-04 11:05:00,10.6,-0.9,29.99,West,263,4.0,8.0,59,0.00,,SKC,0.00,VWS V14.01,2013-02-04 17:05:00,
2013-02-04 11:07:00,7.4,0.3,30.01,West,261,2.0,4.0,72,0.00,,SKC,0.00,VWS V14.01,2013-02-04 17:07:00,
2013-02-04 11:10:00,10.7,-0.4,29.99,WSW,244,1.0,6.0,60,0.00,,SKC,0.00,VWS V14.01,2013-02-04 17:10:00,
2013-02-04 11:12:00,8.1,0.7,30.01,North,10,1.0,3.0,71,0.00,,SKC,0.00,VWS V14.01,2013-02-04 17:12:00,
2013-02-04 11:15:00,11.4,-0.5,29.98,NW,321,0.0,4.0,58,0.00,,SKC,0.00,VWS V14.01,2013-02-04 17:15:00,
2013-02-04 11:17:00,8.1,-0.3,30.00,WSW,242,0.0,5.0,68,0.00,,SKC,0.00,VWS V14.01,2013-02-04 17:17:00,
2013-02-04 11:20:00,11.7,-0.2,29.98,WSW,254,1.0,5.0,58,0.00,,SKC,0.00,VWS V14.01,2013-02-04 17:20:00,
2013-02-04 11:22:00,8.4,0.3,30.00,WNW,282,1.0,2.0,69,0.00,,SKC,0.00,VWS V14.01,2013-02-04 17:22:00,
2013-02-04 11:25:00,11.7,-0.6,29.98,West,268,1.0,5.0,57,0.00,,SKC,0.00,VWS V14.01,2013-02-04 17:25:00,
2013-02-04 11:27:00,8.7,0.0,30.00,WNW,288,4.0,5.0,67,0.00,,SKC,0.00,VWS V14.01,2013-02-04 17:27:00,
2013-02-04 11:30:00,12.1,-1.0,29.98,NW,305,1.0,5.0,55,0.00,,SKC,0.00,VWS V14.01,2013-02-04 17:30:00,
2013-02-04 11:32:00,8.6,-0.4,29.99,West,261,0.0,5.0,66,0.00,,SKC,0.00,VWS V14.01,2013-02-04 17:32:00,
2013-02-04 11:35:00,12.1,-1.7,29.98,NNW,345,1.0,6.0,53,0.00,,SKC,0.00,VWS V14.01,2013-02-04 17:35:00,
2013-02-04 11:37:00,8.9,-0.4,29.99,West,274,1.0,3.0,65,0.00,,SKC,0.00,VWS V14.01,2013-02-04 17:37:00,
2013-02-04 11:40:00,12.4,-2.3,29.98,West,275,3.0,5.0,51,0.00,,SKC,0.00,VWS V14.01,2013-02-04 17:40:00,
2013-02-04 11:42:00,9.4,0.0,29.99,WSW,246,0.0,2.0,65,0.00,,SKC,0.00,VWS V14.01,2013-02-04 17:42:00,
2013-02-04 11:45:00,12.0,-2.6,29.97,WNW,285,0.0,7.0,51,0.00,,SKC,0.00,VWS V14.01,2013-02-04 17:45:00,
2013-02-04 11:47:00,10.3,0.9,29.99,WNW,284,2.0,3.0,65,0.00,,SKC,0.00,VWS V14.01,2013-02-04 17:47:00,
2013-02-04 11:50:00,12.3,-2.0,29.97,WSW,241,1.0,6.0,52,0.00,,SKC,0.00,VWS V14.01,2013-02-04 17:50:00,
2013-02-04 11:52:00,10.8,1.0,29.99,West,280,3.0,3.0,64,0.00,,SKC,0.00,VWS V14.01,2013-02-04 17:52:00,
2013-02-04 11:55:00,12.9,-2.2,29.97,WNW,292,0.0,3.0,50,0.00,,SKC,0.00,VWS V14.01,2013-02-04 17:55:00,
2013-02-04 11:57:00,10.9,0.8,29.99,WNW,296,1.0,4.0,63,0.00,,SKC,0.00,VWS V14.01,2013-02-04 17:57:00,
2013-02-04 12:00:00,13.2,-2.0,29.96,West,270,3.0,9.0,50,0.00,,SKC,0.00,VWS V14.01,2013-02-04 18:00:00,
2013-02-04 12:02:00,10.8,-0.3,29.99,West,271,2.0,6.0,60,0.00,,SKC,0.00,VWS V14.01,2013-02-04 18:02:00,
2013-02-04 12:05:00,12.7,-3.3,29.96,NNE,15,1.0,9.0,48,0.00,,SKC,0.00,VWS V14.01,2013-02-04 18:05:00,
2013-02-04 12:07:00,10.5,-1.0,29.99,West,273,2.0,4.0,59,0.00,,SKC,0.00,VWS V14.01,2013-02-04 18:07:00,
2013-02-04 12:10:00,12.8,-4.1,29.96,WNW,289,1.0,7.0,46,0.00,,SKC,0.00,VWS V14.01,2013-02-04 18:10:00,
2013-02-04 12:12:00,10.7,-0.4,29.99,WSW,245,1.0,1.0,60,0.00,,SKC,0.00,VWS V14.01,2013-02-04 18:12:00,
2013-02-04 12:15:00,12.7,-4.2,29.95,WNW,288,7.0,7.0,46,0.00,,SKC,0.00,VWS V14.01,2013-02-04 18:15:00,
2013-02-04 12:17:00,11.4,-0.5,29.98,NNE,13,1.0,1.0,58,0.00,,SKC,0.00,VWS V14.01,2013-02-04 18:17:00,
2013-02-04 12:20:00,12.8,-4.1,29.95,West,280,2.0,7.0,46,0.00,,SKC,0.00,VWS V14.01,2013-02-04 18:20:00,
2013-02-04 12:22:00,11.7,-0.2,29.98,West,280,1.0,3.0,58,0.00,,SKC,0.00,VWS V14.01,2013-02-04 18:22:00,
2013-02-04 12:25:00,12.8,-4.5,29.95,West,259,1.0,7.0,45,0.00,,SKC,0.00,VWS V14.01,2013-02-04 18:25:00,
2013-02-04 12:27:00,11.7,-0.6,29.98,West,268,0.0,1.0,57,0.00,,SKC,0.00,VWS V14.01,2013-02-04 18:27:00,
2013-02-04 12:30:00,12.9,-4.0,29.95,WNW,300,1.0,5.0,46,0.00,,SKC,0.00,VWS V14.01,2013-02-04 18:30:00,
2013-02-04 12:32:00,12.1,-1.0,29.98,WSW,244,4.0,4.0,55,0.00,,SKC,0.00,VWS V14.01,2013-02-04 18:32:00,
2013-02-04 12:35:00,13.1,-3.3,29.95,West,264,3.0,4.0,47,0.00,,SKC,0.00,VWS V14.01,2013-02-04 18:35:00,
2013-02-04 12:37:00,12.1,-1.7,29.98,West,263,2.0,2.0,53,0.00,,SKC,0.00,VWS V14.01,2013-02-04 18:37:00,
2013-02-04 12:40:00,13.2,-4.2,29.95,West,269,2.0,5.0,45,0.00,,SKC,0.00,VWS V14.01,2013-02-04 18:40:00,
2013-02-04 12:42:00,12.4,-2.3,29.98,West,260,5.0,5.0,51,0.00,,SKC,0.00,VWS V14.01,2013-02-04 18:42:00,
2013-02-04 12:45:00,13.3,-3.6,29.94,West,271,3.0,7.0,46,0.00,,SKC,0.00,VWS V14.01,2013-02-04 18:45:00,
2013-02-04 12:47:00,12.0,-2.7,29.97,West,259,0.0,0.0,51,0.00,,SKC,0.00,VWS V14.01,2013-02-04 18:47:00,
2013-02-04 12:50:00,13.3,-3.2,29.94,WSW,248,1.0,3.0,47,0.00,,SKC,0.00,VWS V14.01,2013-02-04 18:50:00,
2013-02-04 12:52:00,12.4,-1.5,29.97,WSW,241,1.0,1.0,53,0.00,,SKC,0.00,VWS V14.01,2013-02-04 18:52:00,
2013-02-04 12:55:00,13.4,-4.4,29.94,SSE,153,0.0,4.0,44,0.00,,SKC,0.00,VWS V14.01,2013-02-04 18:55:00,
2013-02-04 12:57:00,12.9,-1.8,29.97,NNE,27,0.0,2.0,51,0.00,,SKC,0.00,VWS V14.01,2013-02-04 18:57:00,
2013-02-04 13:00:00,13.5,-3.9,29.93,NNW,341,2.0,4.0,45,0.00,,SKC,0.00,VWS V14.01,2013-02-04 19:00:00,
2013-02-04 13:02:00,13.2,-2.0,29.96,WNW,292,2.0,3.0,50,0.00,,SKC,0.00,VWS V14.01,2013-02-04 19:02:00,
2013-02-04 13:05:00,13.6,-4.2,29.93,WSW,245,4.0,5.0,44,0.00,,SKC,0.00,VWS V14.01,2013-02-04 19:05:00,
2013-02-04 13:07:00,12.7,-3.3,29.96,NNE,24,1.0,1.0,48,0.00,,SKC,0.00,VWS V14.01,2013-02-04 19:07:00,
2013-02-04 13:10:00,13.4,-4.0,29.93,WNW,284,3.0,4.0,45,0.00,,SKC,0.00,VWS V14.01,2013-02-04 19:10:00,
2013-02-04 13:12:00,12.8,-4.1,29.96,WNW,292,6.0,6.0,46,0.00,,SKC,0.00,VWS V14.01,2013-02-04 19:12:00,
2013-02-04 13:15:00,13.9,-3.5,29.93,NNE,12,1.0,3.0,45,0.00,,SKC,0.00,VWS V14.01,2013-02-04 19:15:00,
2013-02-04 13:17:00,12.7,-4.2,29.95,West,271,4.0,7.0,46,0.00,,SKC,0.00,VWS V14.01,2013-02-04 19:17:00,
2013-02-04 13:20:00,13.6,-4.2,29.93,WSW,240,3.0,6.0,44,0.00,,SKC,0.00,VWS V14.01,2013-02-04 19:20:00,
2013-02-04 13:22:00,12.8,-4.1,29.95,WNW,291,3.0,7.0,46,0.00,,SKC,0.00,VWS V14.01,2013-02-04 19:22:00,
2013-02-04 13:25:00,13.6,-4.2,29.93,WSW,245,2.0,3.0,44,0.00,,SKC,0.00,VWS V14.01,2013-02-04 19:25:00,
2013-02-04 13:27:00,12.8,-4.5,29.95,WSW,258,1.0,1.0,45,0.00,,SKC,0.00,VWS V14.01,2013-02-04 19:27:00,
2013-02-04 13:30:00,13.9,-3.0,29.92,WSW,257,2.0,2.0,46,0.00,,SKC,0.00,VWS V14.01,2013-02-04 19:30:00,
2013-02-04 13:32:00,12.9,-4.0,29.95,North,5,1.0,1.0,46,0.00,,SKC,0.00,VWS V14.01,2013-02-04 19:32:00,
2013-02-04 13:35:00,14.0,-3.4,29.92,WSW,240,2.0,4.0,45,0.00,,SKC,0.00,VWS V14.01,2013-02-04 19:35:00,
2013-02-04 13:37:00,13.1,-3.8,29.95,West,275,1.0,3.0,46,0.00,,SKC,0.00,VWS V14.01,2013-02-04 19:37:00,
2013-02-04 13:40:00,14.0,-4.4,29.92,WSW,249,2.0,3.0,43,0.00,,SKC,0.00,VWS V14.01,2013-02-04 19:40:00,
2013-02-04 13:42:00,13.2,-4.2,29.95,WSW,253,3.0,3.0,45,0.00,,SKC,0.00,VWS V14.01,2013-02-04 19:42:00,
2013-02-04 13:45:00,14.4,-3.0,29.92,West,279,1.0,4.0,45,0.00,,SKC,0.00,VWS V14.01,2013-02-04 19:45:00,
2013-02-04 13:47:00,13.4,-3.5,29.94,West,281,2.0,3.0,46,0.00,,SKC,0.00,VWS V14.01,2013-02-04 19:47:00,
2013-02-04 13:50:00,14.3,-5.1,29.92,WNW,284,0.0,5.0,41,0.00,,SKC,0.00,VWS V14.01,2013-02-04 19:50:00,
2013-02-04 13:52:00,13.3,-3.2,29.94,WSW,250,2.0,2.0,47,0.00,,SKC,0.00,VWS V14.01,2013-02-04 19:52:00,
2013-02-04 13:55:00,14.3,-4.1,29.92,WSW,255,1.0,5.0,43,0.00,,SKC,0.00,VWS V14.01,2013-02-04 19:55:00,
2013-02-04 13:57:00,13.4,-4.4,29.94,SE,133,2.0,3.0,44,0.00,,SKC,0.00,VWS V14.01,2013-02-04 19:57:00,
2013-02-04 14:00:00,14.3,-4.1,29.92,WNW,286,3.0,7.0,43,0.00,,SKC,0.00,VWS V14.01,2013-02-04 20:00:00,
2013-02-04 14:03:00,13.6,-4.2,29.93,WNW,284,3.0,3.0,44,0.00,,SKC,0.00,VWS V14.01,2013-02-04 20:03:00,
2013-02-04 14:05:00,14.2,-4.2,29.92,NW,304,3.0,6.0,43,0.00,,SKC,0.00,VWS V14.01,2013-02-04 20:05:00,
2013-02-04 14:08:00,13.5,-4.8,29.93,WNW,291,2.0,4.0,43,0.00,,SKC,0.00,VWS V14.01,2013-02-04 20:08:00,
2013-02-04 14:10:00,14.0,-4.8,29.92,West,272,3.0,4.0,42,0.00,,SKC,0.00,VWS V14.01,2013-02-04 20:10:00,
2013-02-04 14:13:00,13.5,-3.9,29.93,WSW,250,1.0,3.0,45,0.00,,SKC,0.00,VWS V14.01,2013-02-04 20:13:00,
2013-02-04 14:15:00,14.2,-3.2,29.92,West,260,2.0,3.0,45,0.00,,SKC,0.00,VWS V14.01,2013-02-04 20:15:00,
2013-02-04 14:18:00,13.8,-3.6,29.93,NE,47,2.0,3.0,45,0.00,,SKC,0.00,VWS V14.01,2013-02-04 20:18:00,
2013-02-04 14:20:00,14.1,-4.3,29.92,West,281,2.0,5.0,43,0.00,,SKC,0.00,VWS V14.01,2013-02-04 20:20:00,
2013-02-04 14:23:00,13.6,-4.2,29.93,West,280,0.0,3.0,44,0.00,,SKC,0.00,VWS V14.01,2013-02-04 20:23:00,
2013-02-04 14:25:00,14.0,-4.4,29.92,WNW,298,3.0,4.0,43,0.00,,SKC,0.00,VWS V14.01,2013-02-04 20:25:00,
2013-02-04 14:28:00,13.6,-4.2,29.93,WSW,249,1.0,2.0,44,0.00,,SKC,0.00,VWS V14.01,2013-02-04 20:28:00,
2013-02-04 14:30:00,14.2,-4.2,29.93,WSW,249,3.0,4.0,43,0.00,,SKC,0.00,VWS V14.01,2013-02-04 20:30:00,
2013-02-04 14:33:00,13.9,-3.0,29.92,West,260,3.0,4.0,46,0.00,,SKC,0.00,VWS V14.01,2013-02-04 20:33:00,
2013-02-04 14:35:00,14.2,-4.2,29.93,West,264,2.0,6.0,43,0.00,,SKC,0.00,VWS V14.01,2013-02-04 20:35:00,
2013-02-04 14:38:00,14.0,-3.9,29.92,SW,233,2.0,3.0,44,0.00,,SKC,0.00,VWS V14.01,2013-02-04 20:38:00,
2013-02-04 14:40:00,13.9,-4.5,29.93,WNW,292,3.0,7.0,43,0.00,,SKC,0.00,VWS V14.01,2013-02-04 20:40:00,
2013-02-04 14:43:00,14.0,-4.4,29.92,South,191,1.0,2.0,43,0.00,,SKC,0.00,VWS V14.01,2013-02-04 20:43:00,
2013-02-04 14:45:00,13.7,-4.2,29.92,WNW,288,3.0,6.0,44,0.00,,SKC,0.00,VWS V14.01,2013-02-04 20:45:00,
2013-02-04 14:48:00,14.4,-4.0,29.92,WNW,284,1.0,1.0,43,0.00,,SKC,0.00,VWS V14.01,2013-02-04 20:48:00,
2013-02-04 14:50:00,13.7,-4.6,29.92,West,273,3.0,7.0,43,0.00,,SKC,0.00,VWS V14.01,2013-02-04 20:50:00,
2013-02-04 14:53:00,14.2,-5.2,29.92,NNW,342,1.0,1.0,41,0.00,,SKC,0.00,VWS V14.01,2013-02-04 20:53:00,
2013-02-04 14:55:00,13.6,-4.7,29.92,West,272,3.0,5.0,43,0.00,,SKC,0.00,VWS V14.01,2013-02-04 20:55:00,
2013-02-04 14:58:00,14.3,-4.1,29.92,West,279,1.0,1.0,43,0.00,,SKC,0.00,VWS V14.01,2013-02-04 20:58:00,
2013-02-04 15:00:00,13.6,-3.8,29.92,West,267,2.0,4.0,45,0.00,,SKC,0.00,VWS V14.01,2013-02-04 21:00:00,
2013-02-04 15:03:00,14.3,-4.1,29.92,WSW,248,2.0,3.0,43,0.00,,SKC,0.00,VWS V14.01,2013-02-04 21:03:00,
2013-02-04 15:05:00,13.5,-4.3,29.92,WNW,286,2.0,4.0,44,0.00,,SKC,0.00,VWS V14.01,2013-02-04 21:05:00,
2013-02-04 15:08:00,14.2,-4.2,29.92,West,260,1.0,4.0,43,0.00,,SKC,0.00,VWS V14.01,2013-02-04 21:08:00,
2013-02-04 15:10:00,13.3,-5.0,29.92,WSW,257,1.0,3.0,43,0.00,,SKC,0.00,VWS V14.01,2013-02-04 21:10:00,
2013-02-04 15:13:00,14.1,-4.8,29.92,West,274,2.0,3.0,42,0.00,,SKC,0.00,VWS V14.01,2013-02-04 21:13:00,
2013-02-04 15:15:00,13.1,-4.2,29.92,West,271,1.0,4.0,45,0.00,,SKC,0.00,VWS V14.01,2013-02-04 21:15:00,
2013-02-04 15:18:00,14.3,-3.1,29.92,West,271,1.0,2.0,45,0.00,,SKC,0.00,VWS V14.01,2013-02-04 21:18:00,
2013-02-04 15:20:00,12.9,-4.4,29.92,West,263,0.0,2.0,45,0.00,,SKC,0.00,VWS V14.01,2013-02-04 21:20:00,
2013-02-04 15:23:00,14.1,-3.8,29.92,West,269,1.0,2.0,44,0.00,,SKC,0.00,VWS V14.01,2013-02-04 21:23:00,
2013-02-04 15:25:00,12.8,-5.5,29.92,West,270,0.0,4.0,43,0.00,,SKC,0.00,VWS V14.01,2013-02-04 21:25:00,
2013-02-04 15:28:00,14.1,-4.3,29.92,WSW,253,3.0,4.0,43,0.00,,SKC,0.00,VWS V14.01,2013-02-04 21:28:00,
2013-02-04 15:30:00,12.7,-5.1,29.91,WNW,286,2.0,3.0,44,0.00,,SKC,0.00,VWS V14.01,2013-02-04 21:30:00,
2013-02-04 15:33:00,14.2,-4.2,29.93,West,280,3.0,4.0,43,0.00,,SKC,0.00,VWS V14.01,2013-02-04 21:33:00,
2013-02-04 15:35:00,12.5,-4.8,29.91,West,275,0.0,2.0,45,0.00,,SKC,0.00,VWS V14.01,2013-02-04 21:35:00,
2013-02-04 15:38:00,14.2,-3.7,29.93,West,270,3.0,3.0,44,0.00,,SKC,0.00,VWS V14.01,2013-02-04 21:38:00,
2013-02-04 15:40:00,12.2,-6.0,29.91,West,281,1.0,2.0,43,0.00,,SKC,0.00,VWS V14.01,2013-02-04 21:40:00,
2013-02-04 15:43:00,13.7,-4.6,29.93,West,261,1.0,3.0,43,0.00,,SKC,0.00,VWS V14.01,2013-02-04 21:43:00,
2013-02-04 15:45:00,11.9,-4.9,29.92,West,269,2.0,3.0,46,0.00,,SKC,0.00,VWS V14.01,2013-02-04 21:45:00,
2013-02-04 15:48:00,13.7,-4.6,29.92,West,259,4.0,4.0,43,0.00,,SKC,0.00,VWS V14.01,2013-02-04 21:48:00,
2013-02-04 15:50:00,11.7,-6.0,29.92,West,281,2.0,3.0,44,0.00,,SKC,0.00,VWS V14.01,2013-02-04 21:50:00,
2013-02-04 15:53:00,13.6,-4.2,29.92,West,269,0.0,3.0,44,0.00,,SKC,0.00,VWS V14.01,2013-02-04 21:53:00,
2013-02-04 15:55:00,11.4,-5.8,29.92,WSW,257,1.0,4.0,45,0.00,,SKC,0.00,VWS V14.01,2013-02-04 21:55:00,
2013-02-04 15:58:00,13.6,-4.2,29.92,WSW,250,4.0,4.0,44,0.00,,SKC,0.00,VWS V14.01,2013-02-04 21:58:00,
2013-02-04 16:00:00,11.2,-6.0,29.93,West,281,1.0,2.0,45,0.00,,SKC,0.00,VWS V14.01,2013-02-04 22:00:00,
2013-02-04 16:03:00,13.6,-3.8,29.92,West,265,2.0,3.0,45,0.00,,SKC,0.00,VWS V14.01,2013-02-04 22:03:00,
2013-02-04 16:05:00,10.9,-6.3,29.93,WNW,283,2.0,2.0,45,0.00,,SKC,0.00,VWS V14.01,2013-02-04 22:05:00,
2013-02-04 16:08:00,13.5,-4.3,29.92,West,267,0.0,2.0,44,0.00,,SKC,0.00,VWS V14.01,2013-02-04 22:08:00,
2013-02-04 16:10:00,10.7,-6.0,29.93,West,279,1.0,2.0,46,0.00,,SKC,0.00,VWS V14.01,2013-02-04 22:10:00,
2013-02-04 16:13:00,13.3,-4.5,29.92,WSW,254,1.0,1.0,44,0.00,,SKC,0.00,VWS V14.01,2013-02-04 22:13:00,
2013-02-04 16:15:00,10.4,-6.3,29.93,West,279,0.0,1.0,46,0.00,,SKC,0.00,VWS V14.01,2013-02-04 22:15:00,
2013-02-04 16:18:00,13.0,-3.9,29.92,West,270,0.0,1.0,46,0.00,,SKC,0.00,VWS V14.01,2013-02-04 22:18:00,
2013-02-04 16:20:00,10.2,-6.4,29.93,West,276,1.0,2.0,46,0.00,,SKC,0.00,VWS V14.01,2013-02-04 22:20:00,
2013-02-04 16:23:00,12.9,-4.9,29.92,West,277,0.0,2.0,44,0.00,,SKC,0.00,VWS V14.01,2013-02-04 22:23:00,
2013-02-04 16:25:00,10.1,-6.1,29.93,West,276,1.0,1.0,47,0.00,,SKC,0.00,VWS V14.01,2013-02-04 22:25:00,
2013-02-04 16:28:00,12.8,-5.0,29.92,WSW,252,0.0,1.0,44,0.00,,SKC,0.00,VWS V14.01,2013-02-04 22:28:00,
2013-02-04 16:30:00,9.8,-6.4,29.92,West,275,0.0,2.0,47,0.00,,SKC,0.00,VWS V14.01,2013-02-04 22:30:00,
2013-02-04 16:33:00,12.7,-5.1,29.91,West,276,0.0,2.0,44,0.00,,SKC,0.00,VWS V14.01,2013-02-04 22:33:00,
2013-02-04 16:35:00,9.3,-6.0,29.92,West,276,0.0,1.0,49,0.00,,SKC,0.00,VWS V14.01,2013-02-04 22:35:00,
2013-02-04 16:38:00,12.5,-4.8,29.91,West,276,0.0,0.0,45,0.00,,SKC,0.00,VWS V14.01,2013-02-04 22:38:00,
2013-02-04 16:40:00,8.7,-6.1,29.92,West,275,0.0,0.0,50,0.00,,SKC,0.00,VWS V14.01,2013-02-04 22:40:00,
2013-02-04 16:43:00,12.2,-6.0,29.91,West,265,2.0,3.0,43,0.00,,SKC,0.00,VWS V14.01,2013-02-04 22:43:00,
2013-02-04 16:45:00,8.1,-5.5,29.92,West,275,0.0,0.0,53,0.00,,SKC,0.00,VWS V14.01,2013-02-04 22:45:00,
2013-02-04 16:48:00,11.8,-5.4,29.92,West,262,1.0,2.0,45,0.00,,SKC,0.00,VWS V14.01,2013-02-04 22:48:00,
2013-02-04 16:50:00,7.4,-6.1,29.92,West,276,0.0,0.0,53,0.00,,SKC,0.00,VWS V14.01,2013-02-04 22:50:00,
2013-02-04 16:53:00,11.6,-5.6,29.92,WSW,256,1.0,4.0,45,0.00,,SKC,0.00,VWS V14.01,2013-02-04 22:53:00,
2013-02-04 16:55:00,6.9,-5.5,29.92,West,276,0.0,0.0,56,0.00,,SKC,0.00,VWS V14.01,2013-02-04 22:55:00,
2013-02-04 16:58:00,11.4,-5.8,29.92,West,280,1.0,2.0,45,0.00,,SKC,0.00,VWS V14.01,2013-02-04 22:58:00,
2013-02-04 17:00:00,6.2,-5.1,29.92,West,276,0.0,0.0,59,0.00,,SKC,0.00,VWS V14.01,2013-02-04 23:00:00,
2013-02-04 17:03:00,11.1,-6.1,29.93,West,281,1.0,1.0,45,0.00,,SKC,0.00,VWS V14.01,2013-02-04 23:03:00,
2013-02-04 17:05:00,5.4,-5.1,29.92,West,275,0.0,1.0,61,0.00,,SKC,0.00,VWS V14.01,2013-02-04 23:05:00,
2013-02-04 17:08:00,10.8,-6.4,29.93,WNW,282,1.0,2.0,45,0.00,,SKC,0.00,VWS V14.01,2013-02-04 23:08:00,
2013-02-04 17:10:00,5.3,-4.9,29.92,West,275,0.0,0.0,62,0.00,,SKC,0.00,VWS V14.01,2013-02-04 23:10:00,
2013-02-04 17:13:00,10.6,-6.1,29.93,West,279,1.0,1.0,46,0.00,,SKC,0.00,VWS V14.01,2013-02-04 23:13:00,
2013-02-04 17:15:00,5.0,-4.5,29.91,West,276,0.0,0.0,64,0.00,,SKC,0.00,VWS V14.01,2013-02-04 23:15:00,
2013-02-04 17:18:00,10.3,-6.4,29.93,West,279,1.0,1.0,46,0.00,,SKC,0.00,VWS V14.01,2013-02-04 23:18:00,
2013-02-04 17:20:00,5.0,-4.8,29.91,West,276,0.0,1.0,63,0.00,,SKC,0.00,VWS V14.01,2013-02-04 23:20:00,
2013-02-04 17:23:00,10.2,-6.0,29.93,West,276,1.0,1.0,47,0.00,,SKC,0.00,VWS V14.01,2013-02-04 23:23:00,
2013-02-04 17:25:00,4.4,-4.4,29.91,West,276,0.0,0.0,66,0.00,,SKC,0.00,VWS V14.01,2013-02-04 23:25:00,
2013-02-04 17:28:00,10.0,-6.2,29.93,West,275,1.0,2.0,47,0.00,,SKC,0.00,VWS V14.01,2013-02-04 23:28:00,
2013-02-04 17:30:00,3.7,-5.1,29.92,West,275,0.0,1.0,66,0.00,,SKC,0.00,VWS V14.01,2013-02-04 23:30:00,
2013-02-04 17:33:00,9.7,-6.0,29.92,West,276,0.0,0.0,48,0.00,,SKC,0.00,VWS V14.01,2013-02-04 23:33:00,
2013-02-04 17:35:00,3.6,-5.5,29.92,West,276,0.0,0.0,65,0.00,,SKC,0.00,VWS V14.01,2013-02-04 23:35:00,
2013-02-04 17:39:00,9.1,-6.2,29.92,West,276,0.0,0.0,49,0.00,,SKC,0.00,VWS V14.01,2013-02-04 23:39:00,
2013-02-04 17:40:00,3.3,-5.5,29.92,West,276,0.0,0.0,66,0.00,,SKC,0.00,VWS V14.01,2013-02-04 23:40:00,
2013-02-04 17:44:00,8.5,-5.9,29.92,West,276,0.0,0.0,51,0.00,,SKC,0.00,VWS V14.01,2013-02-04 23:44:00,
2013-02-04 17:45:00,3.3,-5.2,29.92,West,276,0.0,0.0,67,0.00,,SKC,0.00,VWS V14.01,2013-02-04 23:45:00,
2013-02-04 17:49:00,7.9,-5.7,29.92,West,275,0.0,0.0,53,0.00,,SKC,0.00,VWS V14.01,2013-02-04 23:49:00,
2013-02-04 17:50:00,2.6,-4.9,29.92,West,276,0.0,0.0,70,0.00,,SKC,0.00,VWS V14.01,2013-02-04 23:50:00,
2013-02-04 17:54:00,7.3,-6.2,29.92,West,275,0.0,0.0,53,0.00,,SKC,0.00,VWS V14.01,2013-02-04 23:54:00,
2013-02-04 17:55:00,2.0,-5.2,29.92,West,275,0.0,0.0,71,0.00,,SKC,0.00,VWS V14.01,2013-02-04 23:55:00,
2013-02-04 17:59:00,6.6,-5.4,29.92,West,276,0.0,0.0,57,0.00,,SKC,0.00,VWS V14.01,2013-02-04 23:59:00,
2013-02-04 18:00:00,1.7,-5.2,29.92,West,276,0.0,0.0,72,0.00,,SKC,0.00,VWS V14.01,2013-02-05 00:00:00,
2013-02-04 18:04:00,5.9,-4.6,29.92,West,276,1.0,1.0,61,0.00,,SKC,0.00,VWS V14.01,2013-02-05 00:04:00,
2013-02-04 18:05:00,1.5,-5.7,29.92,West,276,0.0,0.0,71,0.00,,SKC,0.00,VWS V14.01,2013-02-05 00:05:00,
2013-02-04 18:09:00,5.4,-5.5,29.92,West,276,0.0,0.0,60,0.00,,SKC,0.00,VWS V14.01,2013-02-05 00:09:00,
2013-02-04 18:10:00,1.3,-5.3,29.92,West,276,0.0,0.0,73,0.00,,SKC,0.00,VWS V14.01,2013-02-05 00:10:00,
2013-02-04 18:14:00,5.2,-4.3,29.92,West,275,0.0,0.0,64,0.00,,SKC,0.00,VWS V14.01,2013-02-05 00:14:00,
2013-02-04 18:15:00,1.1,-5.5,29.91,West,276,0.0,0.0,73,0.00,,SKC,0.00,VWS V14.01,2013-02-05 00:15:00,
2013-02-04 18:19:00,5.0,-4.5,29.91,West,276,0.0,0.0,64,0.00,,SKC,0.00,VWS V14.01,2013-02-05 00:19:00,
2013-02-04 18:20:00,0.7,-5.6,29.91,West,275,0.0,1.0,74,0.00,,SKC,0.00,VWS V14.01,2013-02-05 00:20:00,
2013-02-04 18:24:00,4.8,-4.4,29.91,West,276,0.0,0.0,65,0.00,,SKC,0.00,VWS V14.01,2013-02-05 00:24:00,
2013-02-04 18:25:00,0.5,-5.5,29.91,West,276,0.0,0.0,75,0.00,,SKC,0.00,VWS V14.01,2013-02-05 00:25:00,
2013-02-04 18:29:00,4.2,-4.9,29.91,West,276,0.0,0.0,65,0.00,,SKC,0.00,VWS V14.01,2013-02-05 00:29:00,
2013-02-04 18:30:00,0.4,-5.4,29.90,West,276,1.0,1.0,76,0.00,,SKC,0.00,VWS V14.01,2013-02-05 00:30:00,
2013-02-04 18:34:00,3.7,-5.4,29.92,West,276,0.0,0.0,65,0.00,,SKC,0.00,VWS V14.01,2013-02-05 00:34:00,
2013-02-04 18:35:00,0.2,-5.3,29.90,West,275,0.0,1.0,77,0.00,,SKC,0.00,VWS V14.01,2013-02-05 00:35:00,
2013-02-04 18:39:00,3.5,-5.6,29.92,West,276,0.0,0.0,65,0.00,,SKC,0.00,VWS V14.01,2013-02-05 00:39:00,
2013-02-04 18:40:00,0.1,-5.2,29.90,West,275,0.0,0.0,78,0.00,,SKC,0.00,VWS V14.01,2013-02-05 00:40:00,
2013-02-04 18:44:00,3.3,-5.5,29.92,West,275,0.0,0.0,66,0.00,,SKC,0.00,VWS V14.01,2013-02-05 00:44:00,
2013-02-04 18:45:00,-0.3,-5.5,29.91,West,276,0.0,0.0,78,0.00,,SKC,0.00,VWS V14.01,2013-02-05 00:45:00,
2013-02-04 18:49:00,3.1,-5.4,29.92,West,276,0.0,0.0,67,0.00,,SKC,0.00,VWS V14.01,2013-02-05 00:49:00,
2013-02-04 18:50:00,-0.3,-5.2,29.91,West,276,0.0,0.0,79,0.00,,SKC,0.00,VWS V14.01,2013-02-05 00:50:00,
2013-02-04 18:54:00,2.3,-5.2,29.92,West,276,0.0,0.0,70,0.00,,SKC,0.00,VWS V14.01,2013-02-05 00:54:00,
2013-02-04 18:55:00,-0.3,-5.5,29.91,West,276,0.0,0.0,78,0.00,,SKC,0.00,VWS V14.01,2013-02-05 00:55:00,
2013-02-04 18:59:00,1.8,-5.1,29.92,West,276,0.0,0.0,72,0.00,,SKC,0.00,VWS V14.01,2013-02-05 00:59:00,
2013-02-04 19:00:00,-0.2,-5.4,29.90,West,276,0.0,0.0,78,0.00,,SKC,0.00,VWS V14.01,2013-02-05 01:00:00,
2013-02-04 19:04:00,1.5,-5.4,29.92,West,276,0.0,0.0,72,0.00,,SKC,0.00,VWS V14.01,2013-02-05 01:04:00,
2013-02-04 19:05:00,-0.1,-5.3,29.90,West,276,0.0,0.0,78,0.00,,SKC,0.00,VWS V14.01,2013-02-05 01:05:00,
2013-02-04 19:09:00,1.4,-5.5,29.92,West,276,0.0,0.0,72,0.00,,SKC,0.00,VWS V14.01,2013-02-05 01:09:00,
2013-02-04 19:10:00,-0.1,-5.3,29.90,West,276,0.0,0.0,78,0.00,,SKC,0.00,VWS V14.01,2013-02-05 01:10:00,
2013-02-04 19:14:00,1.2,-5.4,29.92,West,276,0.0,0.0,73,0.00,,SKC,0.00,VWS V14.01,2013-02-05 01:14:00,
2013-02-04 19:15:00,-0.3,-5.5,29.90,West,276,0.0,0.0,78,0.00,,SKC,0.00,VWS V14.01,2013-02-05 01:15:00,
2013-02-04 19:19:00,1.0,-5.3,29.91,West,275,0.0,1.0,74,0.00,,SKC,0.00,VWS V14.01,2013-02-05 01:19:00,
2013-02-04 19:20:00,-0.3,-5.5,29.90,West,276,0.0,0.0,78,0.00,,SKC,0.00,VWS V14.01,2013-02-05 01:20:00,
2013-02-04 19:24:00,0.6,-5.7,29.91,West,275,0.0,0.0,74,0.00,,SKC,0.00,VWS V14.01,2013-02-05 01:24:00,
2013-02-04 19:25:00,-0.3,-5.2,29.90,West,276,0.0,0.0,79,0.00,,SKC,0.00,VWS V14.01,2013-02-05 01:25:00,
2013-02-04 19:29:00,0.5,-5.5,29.91,West,276,0.0,0.0,75,0.00,,SKC,0.00,VWS V14.01,2013-02-05 01:29:00,
2013-02-04 19:30:00,-0.3,-5.2,29.90,West,276,0.0,0.0,79,0.00,,SKC,0.00,VWS V14.01,2013-02-05 01:30:00,
2013-02-04 19:34:00,0.2,-5.6,29.90,West,276,1.0,1.0,76,0.00,,SKC,0.00,VWS V14.01,2013-02-05 01:34:00,
2013-02-04 19:35:00,-0.2,-5.2,29.90,West,275,0.0,0.0,79,0.00,,SKC,0.00,VWS V14.01,2013-02-05 01:35:00,
2013-02-04 19:39:00,0.1,-5.1,29.90,West,275,0.0,0.0,78,0.00,,SKC,0.00,VWS V14.01,2013-02-05 01:39:00,
2013-02-04 19:40:00,-0.2,-5.2,29.90,West,276,0.0,0.0,79,0.00,,SKC,0.00,VWS V14.01,2013-02-05 01:40:00,
2013-02-04 19:44:00,-0.2,-5.7,29.90,West,276,0.0,0.0,77,0.00,,SKC,0.00,VWS V14.01,2013-02-05 01:44:00,
2013-02-04 19:45:00,-0.3,-5.2,29.90,West,276,0.0,0.0,79,0.00,,SKC,0.00,VWS V14.01,2013-02-05 01:45:00,
2013-02-04 19:49:00,-0.3,-5.5,29.91,West,276,0.0,0.0,78,0.00,,SKC,0.00,VWS V14.01,2013-02-05 01:49:00,
2013-02-04 19:50:00,-0.4,-5.3,29.90,West,276,0.0,0.0,79,0.00,,SKC,0.00,VWS V14.01,2013-02-05 01:50:00,
2013-02-04 19:54:00,-0.3,-5.2,29.91,West,276,0.0,0.0,79,0.00,,SKC,0.00,VWS V14.01,2013-02-05 01:54:00,
2013-02-04 19:55:00,-0.6,-5.5,29.90,West,276,0.0,0.0,79,0.00,,SKC,0.00,VWS V14.01,2013-02-05 01:55:00,
2013-02-04 19:59:00,-0.2,-5.2,29.91,West,275,0.0,0.0,79,0.00,,SKC,0.00,VWS V14.01,2013-02-05 01:59:00,
2013-02-04 20:00:00,-0.6,-5.3,29.89,West,276,0.0,0.0,80,0.00,,SKC,0.00,VWS V14.01,2013-02-05 02:00:00,
2013-02-04 20:04:00,-0.1,-5.3,29.90,West,275,0.0,0.0,78,0.00,,SKC,0.00,VWS V14.01,2013-02-05 02:04:00,
2013-02-04 20:05:00,-0.4,-5.1,29.89,West,276,0.0,0.0,80,0.00,,SKC,0.00,VWS V14.01,2013-02-05 02:05:00,
2013-02-04 20:09:00,-0.1,-5.3,29.90,West,276,0.0,0.0,78,0.00,,SKC,0.00,VWS V14.01,2013-02-05 02:09:00,
2013-02-04 20:10:00,-0.4,-5.1,29.89,West,276,0.0,0.0,80,0.00,,SKC,0.00,VWS V14.01,2013-02-05 02:10:00,
2013-02-04 20:14:00,-0.2,-5.4,29.90,West,276,0.0,0.0,78,0.00,,SKC,0.00,VWS V14.01,2013-02-05 02:14:00,
2013-02-04 20:15:00,-0.6,-5.3,29.88,West,276,0.0,0.0,80,0.00,,SKC,0.00,VWS V14.01,2013-02-05 02:15:00,
2013-02-04 20:19:00,-0.3,-5.5,29.90,West,275,0.0,0.0,78,0.00,,SKC,0.00,VWS V14.01,2013-02-05 02:19:00,
2013-02-04 20:20:00,-0.8,-5.5,29.88,West,275,0.0,0.0,80,0.00,,SKC,0.00,VWS V14.01,2013-02-05 02:20:00,
2013-02-04 20:24:00,-0.3,-5.2,29.90,West,276,0.0,0.0,79,0.00,,SKC,0.00,VWS V14.01,2013-02-05 02:24:00,
2013-02-04 20:25:00,-1.2,-5.9,29.88,West,276,0.0,0.0,80,0.00,,SKC,0.00,VWS V14.01,2013-02-05 02:25:00,
2013-02-04 20:29:00,-0.3,-5.2,29.90,West,276,0.0,0.0,79,0.00,,SKC,0.00,VWS V14.01,2013-02-05 02:29:00,
2013-02-04 20:30:00,-1.3,-5.7,29.88,West,276,0.0,0.0,81,0.00,,SKC,0.00,VWS V14.01,2013-02-05 02:30:00,
2013-02-04 20:34:00,-0.3,-5.2,29.90,West,276,0.0,0.0,79,0.00,,SKC,0.00,VWS V14.01,2013-02-05 02:34:00,
2013-02-04 20:35:00,-1.4,-5.8,29.88,West,275,0.0,0.0,81,0.00,,SKC,0.00,VWS V14.01,2013-02-05 02:35:00,
2013-02-04 20:39:00,-0.2,-5.2,29.90,West,276,0.0,0.0,79,0.00,,SKC,0.00,VWS V14.01,2013-02-05 02:39:00,
2013-02-04 20:40:00,-1.4,-5.8,29.88,West,275,0.0,0.0,81,0.00,,SKC,0.00,VWS V14.01,2013-02-05 02:40:00,
2013-02-04 20:44:00,-0.1,-5.1,29.90,West,275,0.0,0.0,79,0.00,,SKC,0.00,VWS V14.01,2013-02-05 02:44:00,
2013-02-04 20:45:00,-1.6,-6.0,29.87,West,276,0.0,0.0,81,0.00,,SKC,0.00,VWS V14.01,2013-02-05 02:45:00,
2013-02-04 20:49:00,-0.3,-5.2,29.90,West,276,0.0,0.0,79,0.00,,SKC,0.00,VWS V14.01,2013-02-05 02:49:00,
2013-02-04 20:50:00,-1.7,-5.8,29.87,West,276,0.0,0.0,82,0.00,,SKC,0.00,VWS V14.01,2013-02-05 02:50:00,
2013-02-04 20:54:00,-0.4,-5.3,29.90,West,276,0.0,0.0,79,0.00,,SKC,0.00,VWS V14.01,2013-02-05 02:54:00,
2013-02-04 20:55:00,-1.6,-6.0,29.87,West,276,0.0,0.0,81,0.00,,SKC,0.00,VWS V14.01,2013-02-05 02:55:00,
2013-02-04 20:59:00,-0.6,-5.5,29.90,West,276,0.0,0.0,79,0.00,,SKC,0.00,VWS V14.01,2013-02-05 02:59:00,
2013-02-04 21:00:00,-1.5,-5.9,29.87,West,275,0.0,0.0,81,0.00,,SKC,0.00,VWS V14.01,2013-02-05 03:00:00,
2013-02-04 21:04:00,-0.5,-5.2,29.89,West,276,0.0,0.0,80,0.00,,SKC,0.00,VWS V14.01,2013-02-05 03:04:00,
2013-02-04 21:05:00,-1.4,-6.1,29.87,West,276,0.0,0.0,80,0.00,,SKC,0.00,VWS V14.01,2013-02-05 03:05:00,
2013-02-04 21:09:00,-0.4,-5.1,29.89,West,276,0.0,0.0,80,0.00,,SKC,0.00,VWS V14.01,2013-02-05 03:09:00,
2013-02-04 21:10:00,-0.5,-5.2,29.87,SSE,167,1.0,2.0,80,0.00,,SKC,0.00,VWS V14.01,2013-02-05 03:10:00,
2013-02-04 21:14:00,-0.5,-5.2,29.89,West,276,0.0,0.0,80,0.00,,SKC,0.00,VWS V14.01,2013-02-05 03:14:00,
2013-02-04 21:15:00,0.4,-4.8,29.86,SSE,165,0.0,1.0,78,0.00,,SKC,0.00,VWS V14.01,2013-02-05 03:15:00,
2013-02-04 21:19:00,-0.7,-5.4,29.88,West,276,0.0,0.0,80,0.00,,SKC,0.00,VWS V14.01,2013-02-05 03:19:00,
2013-02-04 21:20:00,0.6,-5.2,29.86,SSE,166,0.0,0.0,76,0.00,,SKC,0.00,VWS V14.01,2013-02-05 03:20:00,
2013-02-04 21:25:00,-1.0,-5.9,29.88,West,276,0.0,0.0,79,0.00,,SKC,0.00,VWS V14.01,2013-02-05 03:25:00,
2013-02-04 21:30:00,-1.4,-6.1,29.88,West,276,0.0,0.0,80,0.00,,SKC,0.00,VWS V14.01,2013-02-05 03:30:00,
2013-02-04 21:35:00,-1.4,-5.8,29.88,West,276,0.0,0.0,81,0.00,,SKC,0.00,VWS V14.01,2013-02-05 03:35:00,
2013-02-04 21:40:00,-1.4,-5.8,29.88,West,276,0.0,0.0,81,0.00,,SKC,0.00,VWS V14.01,2013-02-05 03:40:00,
2013-02-04 21:45:00,-1.5,-5.9,29.88,West,275,0.0,0.0,81,0.00,,SKC,0.00,VWS V14.01,2013-02-05 03:45:00,
2013-02-04 21:50:00,-1.7,-5.8,29.87,West,275,0.0,0.0,82,0.00,,SKC,0.00,VWS V14.01,2013-02-05 03:50:00,
2013-02-04 21:55:00,-1.6,-5.7,29.87,West,276,0.0,0.0,82,0.00,,SKC,0.00,VWS V14.01,2013-02-05 03:55:00,
2013-02-04 22:00:00,-1.6,-6.0,29.87,West,276,0.0,0.0,81,0.00,,SKC,0.00,VWS V14.01,2013-02-05 04:00:00,
2013-02-04 22:05:00,-1.5,-6.2,29.87,West,276,0.0,0.0,80,0.00,,SKC,0.00,VWS V14.01,2013-02-05 04:05:00,
2013-02-04 22:10:00,-1.0,-5.7,29.87,SSE,160,0.0,2.0,80,0.00,,SKC,0.00,VWS V14.01,2013-02-05 04:10:00,
2013-02-04 22:15:00,0.1,-4.8,29.87,SSE,165,0.0,1.0,79,0.00,,SKC,0.00,VWS V14.01,2013-02-05 04:15:00,
2013-02-04 22:20:00,0.6,-4.9,29.86,SSE,165,0.0,0.0,77,0.00,,SKC,0.00,VWS V14.01,2013-02-05 04:20:00,
2013-02-04 22:25:00,0.7,-5.1,29.86,SSE,163,0.0,1.0,76,0.00,,SKC,0.00,VWS V14.01,2013-02-05 04:25:00,
2013-02-04 22:30:00,1.3,-4.8,29.86,South,180,0.0,0.0,75,0.00,,SKC,0.00,VWS V14.01,2013-02-05 04:30:00,
2013-02-04 22:35:00,1.9,-4.5,29.86,South,180,0.0,0.0,74,0.00,,SKC,0.00,VWS V14.01,2013-02-05 04:35:00,
2013-02-04 22:40:00,2.0,-4.7,29.86,South,179,0.0,0.0,73,0.00,,SKC,0.00,VWS V14.01,2013-02-05 04:40:00,
2013-02-04 22:45:00,2.2,-4.7,29.86,South,180,0.0,0.0,72,0.00,,SKC,0.00,VWS V14.01,2013-02-05 04:45:00,
2013-02-04 22:50:00,2.3,-4.6,29.85,South,180,0.0,0.0,72,0.00,,SKC,0.00,VWS V14.01,2013-02-05 04:50:00,
2013-02-04 22:55:00,2.3,-4.6,29.85,South,181,0.0,0.0,72,0.00,,SKC,0.00,VWS V14.01,2013-02-05 04:55:00,
2013-02-04 23:00:00,2.5,-4.4,29.85,South,181,0.0,0.0,72,0.00,,SKC,0.00,VWS V14.01,2013-02-05 05:00:00,
2013-02-04 23:01:00,2.5,-4.4,29.85,South,180,0.0,0.0,72,0.00,,SKC,0.00,VWS V14.01,2013-02-05 05:01:00,
2013-02-04 23:05:00,4.0,-3.9,29.83,SSE,160,0.0,0.0,69,0.00,,SKC,0.00,VWS V14.01,2013-02-05 05:05:00,
2013-02-04 23:06:00,2.6,-4.3,29.84,SSW,210,0.0,1.0,72,0.00,,SKC,0.00,VWS V14.01,2013-02-05 05:06:00,
2013-02-04 23:10:00,4.3,-3.6,29.83,SSE,153,0.0,1.0,69,0.00,,SKC,0.00,VWS V14.01,2013-02-05 05:10:00,
2013-02-04 23:11:00,2.7,-4.3,29.84,SSW,209,0.0,0.0,72,0.00,,SKC,0.00,VWS V14.01,2013-02-05 05:11:00,
2013-02-04 23:15:00,4.5,-3.4,29.82,WNW,302,0.0,2.0,69,0.00,,SKC,0.00,VWS V14.01,2013-02-05 05:15:00,
2013-02-04 23:16:00,2.9,-4.4,29.84,SSW,209,0.0,0.0,71,0.00,,SKC,0.00,VWS V14.01,2013-02-05 05:16:00,
2013-02-04 23:20:00,4.7,-3.2,29.82,SSE,165,0.0,1.0,69,0.00,,SKC,0.00,VWS V14.01,2013-02-05 05:20:00,
2013-02-04 23:21:00,3.0,-4.3,29.84,SSW,209,0.0,0.0,71,0.00,,SKC,0.00,VWS V14.01,2013-02-05 05:21:00,
2013-02-04 23:25:00,5.0,-2.9,29.82,SW,223,0.0,1.0,69,0.00,,SKC,0.00,VWS V14.01,2013-02-05 05:25:00,
2013-02-04 23:26:00,3.2,-4.4,29.84,SSW,209,0.0,0.0,70,0.00,,SKC,0.00,VWS V14.01,2013-02-05 05:26:00,
2013-02-04 23:30:00,5.1,-2.8,29.82,WSW,248,0.0,1.0,69,0.00,,SKC,0.00,VWS V14.01,2013-02-05 05:30:00,
2013-02-04 23:31:00,3.3,-4.3,29.84,SE,141,0.0,1.0,70,0.00,,SKC,0.00,VWS V14.01,2013-02-05 05:31:00,
2013-02-04 23:35:00,5.3,-2.6,29.82,SW,230,0.0,1.0,69,0.00,,SKC,0.00,VWS V14.01,2013-02-05 05:35:00,
2013-02-04 23:36:00,3.4,-4.2,29.84,SE,146,0.0,1.0,70,0.00,,SKC,0.00,VWS V14.01,2013-02-05 05:36:00,
2013-02-04 23:40:00,5.5,-2.5,29.82,SW,230,0.0,1.0,69,0.00,,SKC,0.00,VWS V14.01,2013-02-05 05:40:00,
2013-02-04 23:41:00,3.4,-4.2,29.84,SSE,147,0.0,0.0,70,0.00,,SKC,0.00,VWS V14.01,2013-02-05 05:41:00,
2013-02-04 23:45:00,5.7,-2.3,29.82,WSW,248,0.0,1.0,69,0.00,,SKC,0.00,VWS V14.01,2013-02-05 05:45:00,
2013-02-04 23:46:00,3.5,-4.1,29.83,SE,146,0.0,0.0,70,0.00,,SKC,0.00,VWS V14.01,2013-02-05 05:46:00,
2013-02-04 23:50:00,5.9,-2.1,29.82,SW,236,0.0,4.0,69,0.00,,SKC,0.00,VWS V14.01,2013-02-05 05:50:00,
2013-02-04 23:51:00,3.6,-4.0,29.83,SSE,147,0.0,0.0,70,0.00,,SKC,0.00,VWS V14.01,2013-02-05 05:51:00,
2013-02-04 23:55:00,6.2,-1.8,29.82,South,179,1.0,2.0,69,0.00,,SKC,0.00,VWS V14.01,2013-02-05 05:55:00,
2013-02-04 23:56:00,3.6,-4.0,29.83,SE,146,0.0,1.0,70,0.00,,SKC,0.00,VWS V14.01,2013-02-05 05:56:00,